sensor_id;sensor_type;location;lat;lon;timestamp;pressure;altitude;pressure_sealevel;temperature;humidity
74778;BME280;63298;53.164;8.610;2023-11-22T00:02:04;102972.44;;;5.12;79.53
74778;BME280;63298;53.164;8.610;2023-11-22T00:04:30;102977.16;;;5.19;79.94
74778;BME280;63298;53.164;8.610;2023-11-22T00:06:55;102981.50;;;5.22;79.91
74778;BME280;63298;53.164;8.610;2023-11-22T00:09:20;102989.38;;;5.25;79.31
74778;BME280;63298;53.164;8.610;2023-11-22T00:11:46;102999.00;;;5.29;79.53
74778;BME280;63298;53.164;8.610;2023-11-22T00:14:11;102998.31;;;5.27;79.54
74778;BME280;63298;53.164;8.610;2023-11-22T00:16:36;103001.34;;;5.24;78.99
74778;BME280;63298;53.164;8.610;2023-11-22T00:19:01;103001.50;;;5.22;79.82
74778;BME280;63298;53.164;8.610;2023-11-22T00:21:27;102994.75;;;5.17;78.97
74778;BME280;63298;53.164;8.610;2023-11-22T00:23:52;103009.44;;;5.16;79.71
74778;BME280;63298;53.164;8.610;2023-11-22T00:26:18;103016.63;;;5.17;79.19
74778;BME280;63298;53.164;8.610;2023-11-22T00:28:43;103019.06;;;5.20;79.26
74778;BME280;63298;53.164;8.610;2023-11-22T00:31:08;103003.66;;;5.19;79.58
74778;BME280;63298;53.164;8.610;2023-11-22T00:33:34;103007.13;;;5.21;79.06
74778;BME280;63298;53.164;8.610;2023-11-22T00:35:59;103011.59;;;5.22;79.23
74778;BME280;63298;53.164;8.610;2023-11-22T00:38:24;103008.84;;;5.22;79.12
74778;BME280;63298;53.164;8.610;2023-11-22T00:40:50;103011.88;;;5.19;79.00
74778;BME280;63298;53.164;8.610;2023-11-22T00:43:16;103021.53;;;5.13;79.81
74778;BME280;63298;53.164;8.610;2023-11-22T00:45:41;103025.56;;;5.09;79.13
74778;BME280;63298;53.164;8.610;2023-11-22T00:48:07;103025.75;;;5.08;79.49
74778;BME280;63298;53.164;8.610;2023-11-22T00:50:32;103027.59;;;5.07;79.04
74778;BME280;63298;53.164;8.610;2023-11-22T00:53:00;103038.81;;;5.04;79.89
74778;BME280;63298;53.164;8.610;2023-11-22T00:55:25;103049.34;;;4.99;79.08
74778;BME280;63298;53.164;8.610;2023-11-22T00:57:51;103044.63;;;4.92;79.32
74778;BME280;63298;53.164;8.610;2023-11-22T01:00:17;103045.75;;;4.89;79.85
74778;BME280;63298;53.164;8.610;2023-11-22T01:02:42;103055.81;;;4.89;79.41
74778;BME280;63298;53.164;8.610;2023-11-22T01:05:08;103060.47;;;4.88;79.44
74778;BME280;63298;53.164;8.610;2023-11-22T01:07:33;103049.66;;;4.87;79.65
74778;BME280;63298;53.164;8.610;2023-11-22T01:09:59;103041.88;;;4.82;79.41
74778;BME280;63298;53.164;8.610;2023-11-22T01:12:24;103023.63;;;4.83;79.27
74778;BME280;63298;53.164;8.610;2023-11-22T01:14:50;103026.34;;;4.83;79.47
74778;BME280;63298;53.164;8.610;2023-11-22T01:17:15;103022.88;;;4.81;79.14
74778;BME280;63298;53.164;8.610;2023-11-22T01:19:40;103035.00;;;4.78;79.34
74778;BME280;63298;53.164;8.610;2023-11-22T01:22:06;103039.72;;;4.76;79.59
74778;BME280;63298;53.164;8.610;2023-11-22T01:24:31;103034.69;;;4.71;79.68
74778;BME280;63298;53.164;8.610;2023-11-22T01:27:00;103033.84;;;4.71;79.05
74778;BME280;63298;53.164;8.610;2023-11-22T01:29:25;103027.81;;;4.67;79.88
74778;BME280;63298;53.164;8.610;2023-11-22T01:31:50;103038.00;;;4.65;79.40
74778;BME280;63298;53.164;8.610;2023-11-22T01:34:16;103055.28;;;4.66;79.54
74778;BME280;63298;53.164;8.610;2023-11-22T01:36:42;103051.38;;;4.59;79.91
74778;BME280;63298;53.164;8.610;2023-11-22T01:39:07;103054.41;;;4.65;79.40
74778;BME280;63298;53.164;8.610;2023-11-22T01:41:33;103058.31;;;4.63;79.54
74778;BME280;63298;53.164;8.610;2023-11-22T01:43:58;103057.69;;;4.59;79.95
74778;BME280;63298;53.164;8.610;2023-11-22T01:46:24;103055.56;;;4.53;79.20
74778;BME280;63298;53.164;8.610;2023-11-22T01:48:50;103070.38;;;4.51;79.71
74778;BME280;63298;53.164;8.610;2023-11-22T01:51:20;103080.59;;;4.49;79.41
74778;BME280;63298;53.164;8.610;2023-11-22T01:53:46;103083.47;;;4.47;79.47
74778;BME280;63298;53.164;8.610;2023-11-22T01:56:13;103092.66;;;4.46;79.45
74778;BME280;63298;53.164;8.610;2023-11-22T01:58:41;103098.13;;;4.46;79.47
74778;BME280;63298;53.164;8.610;2023-11-22T02:01:06;103096.38;;;4.45;79.39
74778;BME280;63298;53.164;8.610;2023-11-22T02:03:32;103096.69;;;4.42;79.79
74778;BME280;63298;53.164;8.610;2023-11-22T02:05:57;103098.41;;;4.43;79.15
74778;BME280;63298;53.164;8.610;2023-11-22T02:08:22;103085.00;;;4.40;79.44
74778;BME280;63298;53.164;8.610;2023-11-22T02:10:57;103089.63;;;4.40;79.92
74778;BME280;63298;53.164;8.610;2023-11-22T02:13:23;103088.63;;;4.41;79.42
74778;BME280;63298;53.164;8.610;2023-11-22T02:15:48;103089.78;;;4.38;80.10
74778;BME280;63298;53.164;8.610;2023-11-22T02:18:14;103095.06;;;4.40;79.52
74778;BME280;63298;53.164;8.610;2023-11-22T02:20:39;103099.84;;;4.38;80.15
74778;BME280;63298;53.164;8.610;2023-11-22T02:23:08;103093.81;;;4.34;80.03
74778;BME280;63298;53.164;8.610;2023-11-22T02:25:34;103085.88;;;4.31;80.00
74778;BME280;63298;53.164;8.610;2023-11-22T02:28:00;103085.88;;;4.31;79.37
74778;BME280;63298;53.164;8.610;2023-11-22T02:30:25;103094.06;;;4.31;79.83
74778;BME280;63298;53.164;8.610;2023-11-22T02:32:51;103096.78;;;4.31;79.85
74778;BME280;63298;53.164;8.610;2023-11-22T02:35:16;103084.44;;;4.27;79.95
74778;BME280;63298;53.164;8.610;2023-11-22T02:37:41;103095.22;;;4.28;80.20
74778;BME280;63298;53.164;8.610;2023-11-22T02:42:41;103092.91;;;4.24;79.82
74778;BME280;63298;53.164;8.610;2023-11-22T02:45:07;103104.69;;;4.24;79.51
74778;BME280;63298;53.164;8.610;2023-11-22T02:47:33;103107.69;;;4.21;79.34
74778;BME280;63298;53.164;8.610;2023-11-22T02:49:58;103103.41;;;4.19;79.07
74778;BME280;63298;53.164;8.610;2023-11-22T02:52:23;103104.41;;;4.18;80.27
74778;BME280;63298;53.164;8.610;2023-11-22T02:54:49;103102.94;;;4.14;79.25
74778;BME280;63298;53.164;8.610;2023-11-22T02:57:14;103110.13;;;4.15;79.88
74778;BME280;63298;53.164;8.610;2023-11-22T02:59:43;103101.47;;;4.10;79.54
74778;BME280;63298;53.164;8.610;2023-11-22T03:02:09;103101.34;;;4.11;80.45
74778;BME280;63298;53.164;8.610;2023-11-22T03:04:34;103100.63;;;4.09;79.43
74778;BME280;63298;53.164;8.610;2023-11-22T03:07:00;103085.22;;;3.99;80.14
74778;BME280;63298;53.164;8.610;2023-11-22T03:09:25;103101.19;;;4.03;79.96
74778;BME280;63298;53.164;8.610;2023-11-22T03:11:51;103104.03;;;4.02;79.59
74778;BME280;63298;53.164;8.610;2023-11-22T03:14:16;103109.63;;;4.00;79.54
74778;BME280;63298;53.164;8.610;2023-11-22T03:16:41;103111.91;;;3.95;79.85
74778;BME280;63298;53.164;8.610;2023-11-22T03:19:07;103120.97;;;3.96;80.20
74778;BME280;63298;53.164;8.610;2023-11-22T03:21:32;103118.22;;;3.86;80.14
74778;BME280;63298;53.164;8.610;2023-11-22T03:23:57;103141.38;;;3.91;79.35
74778;BME280;63298;53.164;8.610;2023-11-22T03:26:23;103154.31;;;3.89;79.96
74778;BME280;63298;53.164;8.610;2023-11-22T03:28:48;103148.09;;;3.87;79.78
74778;BME280;63298;53.164;8.610;2023-11-22T03:31:13;103152.69;;;3.87;79.68
74778;BME280;63298;53.164;8.610;2023-11-22T03:33:39;103148.53;;;3.83;79.97
74778;BME280;63298;53.164;8.610;2023-11-22T03:36:04;103155.09;;;3.80;79.18
74778;BME280;63298;53.164;8.610;2023-11-22T03:38:30;103162.59;;;3.78;79.82
74778;BME280;63298;53.164;8.610;2023-11-22T03:40:55;103168.28;;;3.75;79.37
74778;BME280;63298;53.164;8.610;2023-11-22T03:43:21;103165.72;;;3.74;79.84
74778;BME280;63298;53.164;8.610;2023-11-22T03:45:46;103163.25;;;3.71;79.90
74778;BME280;63298;53.164;8.610;2023-11-22T03:48:12;103163.41;;;3.69;79.58
74778;BME280;63298;53.164;8.610;2023-11-22T03:50:37;103159.06;;;3.67;79.45
74778;BME280;63298;53.164;8.610;2023-11-22T03:53:02;103166.66;;;3.63;79.63
74778;BME280;63298;53.164;8.610;2023-11-22T03:55:28;103169.50;;;3.62;79.60
74778;BME280;63298;53.164;8.610;2023-11-22T03:57:53;103174.25;;;3.60;79.70
74778;BME280;63298;53.164;8.610;2023-11-22T04:00:19;103170.91;;;3.56;79.84
74778;BME280;63298;53.164;8.610;2023-11-22T04:02:44;103157.66;;;3.52;79.99
74778;BME280;63298;53.164;8.610;2023-11-22T04:05:10;103165.84;;;3.52;79.89
74778;BME280;63298;53.164;8.610;2023-11-22T04:07:36;103166.72;;;3.52;80.02
74778;BME280;63298;53.164;8.610;2023-11-22T04:10:01;103153.47;;;3.47;79.97
74778;BME280;63298;53.164;8.610;2023-11-22T04:12:27;103148.16;;;3.46;79.91
74778;BME280;63298;53.164;8.610;2023-11-22T04:14:53;103145.31;;;3.47;79.65
74778;BME280;63298;53.164;8.610;2023-11-22T04:17:18;103142.84;;;3.44;79.89
74778;BME280;63298;53.164;8.610;2023-11-22T04:19:43;103138.25;;;3.45;79.93
74778;BME280;63298;53.164;8.610;2023-11-22T04:22:09;103136.53;;;3.44;79.94
74778;BME280;63298;53.164;8.610;2023-11-22T04:24:34;103144.84;;;3.42;79.71
74778;BME280;63298;53.164;8.610;2023-11-22T04:27:00;103150.56;;;3.39;79.54
74778;BME280;63298;53.164;8.610;2023-11-22T04:29:25;103145.53;;;3.35;80.01
74778;BME280;63298;53.164;8.610;2023-11-22T04:31:50;103152.56;;;3.37;80.04
74778;BME280;63298;53.164;8.610;2023-11-22T04:34:16;103148.84;;;3.38;80.01
74778;BME280;63298;53.164;8.610;2023-11-22T04:36:41;103152.84;;;3.34;79.99
74778;BME280;63298;53.164;8.610;2023-11-22T04:39:06;103151.97;;;3.34;79.88
74778;BME280;63298;53.164;8.610;2023-11-22T04:41:32;103150.22;;;3.33;79.95
74778;BME280;63298;53.164;8.610;2023-11-22T04:43:57;103154.22;;;3.29;79.61
74778;BME280;63298;53.164;8.610;2023-11-22T04:46:23;103165.13;;;3.29;79.93
74778;BME280;63298;53.164;8.610;2023-11-22T04:48:49;103166.88;;;3.30;79.77
74778;BME280;63298;53.164;8.610;2023-11-22T04:51:14;103174.31;;;3.28;80.16
74778;BME280;63298;53.164;8.610;2023-11-22T04:53:39;103187.66;;;3.31;79.99
74778;BME280;63298;53.164;8.610;2023-11-22T04:56:07;103198.72;;;3.29;79.91
74778;BME280;63298;53.164;8.610;2023-11-22T04:58:33;103202.31;;;3.30;80.09
74778;BME280;63298;53.164;8.610;2023-11-22T05:00:58;103195.13;;;3.29;79.77
74778;BME280;63298;53.164;8.610;2023-11-22T05:03:26;103195.25;;;3.27;80.20
74778;BME280;63298;53.164;8.610;2023-11-22T05:05:51;103205.19;;;3.28;80.02
74778;BME280;63298;53.164;8.610;2023-11-22T05:08:16;103218.69;;;3.30;80.09
74778;BME280;63298;53.164;8.610;2023-11-22T05:10:42;103226.88;;;3.30;79.93
74778;BME280;63298;53.164;8.610;2023-11-22T05:13:07;103223.13;;;3.31;80.32
74778;BME280;63298;53.164;8.610;2023-11-22T05:15:32;103205.06;;;3.30;80.14
74778;BME280;63298;53.164;8.610;2023-11-22T05:17:58;103197.75;;;3.30;79.96
74778;BME280;63298;53.164;8.610;2023-11-22T05:20:23;103184.75;;;3.23;80.02
74778;BME280;63298;53.164;8.610;2023-11-22T05:22:48;103188.81;;;3.28;80.42
74778;BME280;63298;53.164;8.610;2023-11-22T05:25:14;103179.28;;;3.23;79.86
74778;BME280;63298;53.164;8.610;2023-11-22T05:27:39;103190.19;;;3.23;80.46
74778;BME280;63298;53.164;8.610;2023-11-22T05:30:05;103186.59;;;3.22;80.15
74778;BME280;63298;53.164;8.610;2023-11-22T05:32:30;103182.28;;;3.20;79.88
74778;BME280;63298;53.164;8.610;2023-11-22T05:34:55;103174.34;;;3.17;80.34
74778;BME280;63298;53.164;8.610;2023-11-22T05:37:21;103174.34;;;3.17;80.21
74778;BME280;63298;53.164;8.610;2023-11-22T05:39:46;103179.69;;;3.18;80.32
74778;BME280;63298;53.164;8.610;2023-11-22T05:42:12;103174.50;;;3.15;80.23
74778;BME280;63298;53.164;8.610;2023-11-22T05:44:37;103173.16;;;3.10;79.87
74778;BME280;63298;53.164;8.610;2023-11-22T05:47:05;103195.44;;;3.15;80.31
74778;BME280;63298;53.164;8.610;2023-11-22T05:49:30;103194.59;;;3.14;79.98
74778;BME280;63298;53.164;8.610;2023-11-22T05:51:56;103184.53;;;3.15;80.33
74778;BME280;63298;53.164;8.610;2023-11-22T05:54:21;103196.44;;;3.14;80.24
74778;BME280;63298;53.164;8.610;2023-11-22T05:56:46;103201.78;;;3.15;79.83
74778;BME280;63298;53.164;8.610;2023-11-22T05:59:12;103204.50;;;3.15;80.04
74778;BME280;63298;53.164;8.610;2023-11-22T06:01:37;103199.28;;;3.12;79.83
74778;BME280;63298;53.164;8.610;2023-11-22T06:04:03;103192.09;;;3.11;79.93
74778;BME280;63298;53.164;8.610;2023-11-22T06:06:28;103175.75;;;3.11;80.34
74778;BME280;63298;53.164;8.610;2023-11-22T06:08:53;103167.38;;;3.03;79.96
74778;BME280;63298;53.164;8.610;2023-11-22T06:11:19;103184.94;;;3.10;79.96
74778;BME280;63298;53.164;8.610;2023-11-22T06:13:44;103179.72;;;3.07;80.25
74778;BME280;63298;53.164;8.610;2023-11-22T06:16:09;103190.78;;;3.06;80.11
74778;BME280;63298;53.164;8.610;2023-11-22T06:18:35;103189.16;;;3.03;79.85
74778;BME280;63298;53.164;8.610;2023-11-22T06:21:01;103200.06;;;3.03;80.24
74778;BME280;63298;53.164;8.610;2023-11-22T06:23:29;103193.03;;;3.00;80.05
74778;BME280;63298;53.164;8.610;2023-11-22T06:25:54;103203.06;;;3.00;80.40
74778;BME280;63298;53.164;8.610;2023-11-22T06:28:19;103204.78;;;3.01;80.15
74778;BME280;63298;53.164;8.610;2023-11-22T06:30:45;103196.59;;;3.01;80.38
74778;BME280;63298;53.164;8.610;2023-11-22T06:33:10;103180.13;;;3.02;80.07
74778;BME280;63298;53.164;8.610;2023-11-22T06:35:35;103200.81;;;3.05;80.25
74778;BME280;63298;53.164;8.610;2023-11-22T06:38:00;103200.81;;;3.05;80.39
74778;BME280;63298;53.164;8.610;2023-11-22T06:40:26;103205.53;;;3.03;79.97
74778;BME280;63298;53.164;8.610;2023-11-22T06:42:51;103198.97;;;3.06;80.24
74778;BME280;63298;53.164;8.610;2023-11-22T06:45:17;103204.53;;;3.04;80.03
74778;BME280;63298;53.164;8.610;2023-11-22T06:47:42;103204.53;;;3.04;80.15
74778;BME280;63298;53.164;8.610;2023-11-22T06:50:09;103226.22;;;3.06;80.35
74778;BME280;63298;53.164;8.610;2023-11-22T06:52:38;103223.75;;;3.02;80.23
74778;BME280;63298;53.164;8.610;2023-11-22T06:55:05;103237.84;;;3.08;80.32
74778;BME280;63298;53.164;8.610;2023-11-22T06:57:30;103250.38;;;3.10;80.06
74778;BME280;63298;53.164;8.610;2023-11-22T06:59:58;103234.63;;;3.14;80.43
74778;BME280;63298;53.164;8.610;2023-11-22T07:02:23;103226.44;;;3.14;80.11
74778;BME280;63298;53.164;8.610;2023-11-22T07:04:49;103218.13;;;3.15;80.62
74778;BME280;63298;53.164;8.610;2023-11-22T07:07:14;103212.53;;;3.17;80.20
74778;BME280;63298;53.164;8.610;2023-11-22T07:09:47;103219.00;;;3.16;80.15
74778;BME280;63298;53.164;8.610;2023-11-22T07:12:12;103213.56;;;3.16;80.52
74778;BME280;63298;53.164;8.610;2023-11-22T07:14:38;103231.38;;;3.20;80.60
74778;BME280;63298;53.164;8.610;2023-11-22T07:17:03;103218.47;;;3.22;80.06
74778;BME280;63298;53.164;8.610;2023-11-22T07:19:29;103228.38;;;3.23;80.51
74778;BME280;63298;53.164;8.610;2023-11-22T07:21:57;103232.84;;;3.24;80.25
74778;BME280;63298;53.164;8.610;2023-11-22T07:24:23;103231.69;;;3.26;79.96
74778;BME280;63298;53.164;8.610;2023-11-22T07:26:48;103242.50;;;3.28;80.36
74778;BME280;63298;53.164;8.610;2023-11-22T07:29:13;103244.22;;;3.29;80.67
74778;BME280;63298;53.164;8.610;2023-11-22T07:31:39;103247.06;;;3.27;80.31
74778;BME280;63298;53.164;8.610;2023-11-22T07:34:05;103237.03;;;3.28;80.60
74778;BME280;63298;53.164;8.610;2023-11-22T07:36:30;103234.91;;;3.31;80.31
74778;BME280;63298;53.164;8.610;2023-11-22T07:38:56;103230.19;;;3.33;80.35
74778;BME280;63298;53.164;8.610;2023-11-22T07:41:24;103247.31;;;3.35;80.62
74778;BME280;63298;53.164;8.610;2023-11-22T07:43:50;103249.88;;;3.37;79.77
74778;BME280;63298;53.164;8.610;2023-11-22T07:46:15;103248.16;;;3.36;80.10
74778;BME280;63298;53.164;8.610;2023-11-22T07:48:41;103255.22;;;3.38;80.16
74778;BME280;63298;53.164;8.610;2023-11-22T07:51:07;103254.22;;;3.39;80.21
74778;BME280;63298;53.164;8.610;2023-11-22T07:53:33;103254.22;;;3.39;80.28
74778;BME280;63298;53.164;8.610;2023-11-22T07:55:59;103258.31;;;3.45;80.11
74778;BME280;63298;53.164;8.610;2023-11-22T07:58:24;103255.41;;;3.46;80.68
74778;BME280;63298;53.164;8.610;2023-11-22T08:00:50;103245.38;;;3.47;80.29
74778;BME280;63298;53.164;8.610;2023-11-22T08:03:15;103235.44;;;3.46;80.06
74778;BME280;63298;53.164;8.610;2023-11-22T08:05:40;103253.44;;;3.48;80.05
74778;BME280;63298;53.164;8.610;2023-11-22T08:08:06;103261.34;;;3.52;80.18
74778;BME280;63298;53.164;8.610;2023-11-22T08:10:31;103262.97;;;3.54;80.57
74778;BME280;63298;53.164;8.610;2023-11-22T08:12:56;103251.91;;;3.56;80.47
74778;BME280;63298;53.164;8.610;2023-11-22T08:15:25;103248.06;;;3.58;80.52
74778;BME280;63298;53.164;8.610;2023-11-22T08:17:50;103271.34;;;3.62;80.15
74778;BME280;63298;53.164;8.610;2023-11-22T08:20:15;103273.81;;;3.65;80.48
74778;BME280;63298;53.164;8.610;2023-11-22T08:22:41;103260.84;;;3.58;79.92
74778;BME280;63298;53.164;8.610;2023-11-22T08:25:07;103253.41;;;3.60;80.46
74778;BME280;63298;53.164;8.610;2023-11-22T08:27:36;103255.56;;;3.66;80.64
74778;BME280;63298;53.164;8.610;2023-11-22T08:30:02;103247.72;;;3.72;80.09
74778;BME280;63298;53.164;8.610;2023-11-22T08:32:28;103239.00;;;3.78;79.83
74778;BME280;63298;53.164;8.610;2023-11-22T08:34:53;103253.31;;;3.91;80.33
74778;BME280;63298;53.164;8.610;2023-11-22T08:37:19;103252.31;;;3.92;79.92
74778;BME280;63298;53.164;8.610;2023-11-22T08:39:44;103248.72;;;3.92;79.71
74778;BME280;63298;53.164;8.610;2023-11-22T08:42:09;103261.84;;;3.98;79.67
74778;BME280;63298;53.164;8.610;2023-11-22T08:44:36;103252.50;;;4.01;80.54
74778;BME280;63298;53.164;8.610;2023-11-22T08:47:02;103234.78;;;3.95;79.95
74778;BME280;63298;53.164;8.610;2023-11-22T08:49:30;103241.44;;;4.02;80.20
74778;BME280;63298;53.164;8.610;2023-11-22T08:51:56;103223.56;;;3.88;80.38
74778;BME280;63298;53.164;8.610;2023-11-22T08:54:22;103230.75;;;3.89;79.59
74778;BME280;63298;53.164;8.610;2023-11-22T08:56:47;103228.41;;;3.85;79.73
74778;BME280;63298;53.164;8.610;2023-11-22T08:59:13;103245.00;;;3.93;80.29
74778;BME280;63298;53.164;8.610;2023-11-22T09:01:38;103233.66;;;3.98;79.71
74778;BME280;63298;53.164;8.610;2023-11-22T09:04:04;103243.91;;;4.05;79.76
74778;BME280;63298;53.164;8.610;2023-11-22T09:06:30;103235.41;;;3.99;79.87
74778;BME280;63298;53.164;8.610;2023-11-22T09:08:55;103228.66;;;4.03;79.66
74778;BME280;63298;53.164;8.610;2023-11-22T09:11:21;103244.97;;;4.14;80.13
74778;BME280;63298;53.164;8.610;2023-11-22T09:13:46;103244.09;;;4.13;79.59
74778;BME280;63298;53.164;8.610;2023-11-22T09:16:11;103251.72;;;4.19;79.79
74778;BME280;63298;53.164;8.610;2023-11-22T09:18:40;103267.13;;;4.20;79.08
74778;BME280;63298;53.164;8.610;2023-11-22T09:21:05;103272.88;;;4.17;79.77
74778;BME280;63298;53.164;8.610;2023-11-22T09:23:33;103289.44;;;4.25;79.18
74778;BME280;63298;53.164;8.610;2023-11-22T09:25:59;103278.66;;;4.24;79.35
74778;BME280;63298;53.164;8.610;2023-11-22T09:28:24;103279.91;;;4.20;79.44
74778;BME280;63298;53.164;8.610;2023-11-22T09:30:50;103285.78;;;4.15;79.98
74778;BME280;63298;53.164;8.610;2023-11-22T09:33:15;103275.47;;;4.19;79.27
74778;BME280;63298;53.164;8.610;2023-11-22T09:35:42;103266.25;;;4.20;79.71
74778;BME280;63298;53.164;8.610;2023-11-22T09:38:08;103277.63;;;4.25;79.71
74778;BME280;63298;53.164;8.610;2023-11-22T09:40:34;103288.16;;;4.29;79.54
74778;BME280;63298;53.164;8.610;2023-11-22T09:42:59;103271.06;;;4.27;79.27
74778;BME280;63298;53.164;8.610;2023-11-22T09:45:28;103279.75;;;4.42;80.03
74778;BME280;63298;53.164;8.610;2023-11-22T09:47:54;103268.09;;;4.40;79.32
74778;BME280;63298;53.164;8.610;2023-11-22T09:50:38;103286.38;;;4.49;79.43
74778;BME280;63298;53.164;8.610;2023-11-22T09:53:10;103275.47;;;4.49;79.09
74778;BME280;63298;53.164;8.610;2023-11-22T09:55:36;103275.19;;;4.52;78.54
74778;BME280;63298;53.164;8.610;2023-11-22T09:58:02;103284.84;;;4.56;78.76
74778;BME280;63298;53.164;8.610;2023-11-22T10:00:29;103285.00;;;4.64;78.73
74778;BME280;63298;53.164;8.610;2023-11-22T10:02:54;103263.72;;;4.58;79.06
74778;BME280;63298;53.164;8.610;2023-11-22T10:05:20;103271.09;;;4.67;79.52
74778;BME280;63298;53.164;8.610;2023-11-22T10:07:46;103254.69;;;4.67;78.82
74778;BME280;63298;53.164;8.610;2023-11-22T10:10:15;103256.88;;;4.73;79.20
74778;BME280;63298;53.164;8.610;2023-11-22T10:12:44;103249.25;;;4.77;78.68
74778;BME280;63298;53.164;8.610;2023-11-22T10:15:14;103232.53;;;4.70;78.71
74778;BME280;63298;53.164;8.610;2023-11-22T10:17:40;103240.19;;;4.76;78.89
74778;BME280;63298;53.164;8.610;2023-11-22T10:20:07;103243.78;;;4.77;79.12
74778;BME280;63298;53.164;8.610;2023-11-22T10:22:43;103253.00;;;4.86;78.39
74778;BME280;63298;53.164;8.610;2023-11-22T10:25:12;103250.56;;;4.83;79.08
74778;BME280;63298;53.164;8.610;2023-11-22T10:27:37;103258.91;;;4.91;78.76
74778;BME280;63298;53.164;8.610;2023-11-22T10:30:03;103242.06;;;4.86;78.26
74778;BME280;63298;53.164;8.610;2023-11-22T10:32:29;103232.56;;;4.90;79.16
74778;BME280;63298;53.164;8.610;2023-11-22T10:34:55;103241.09;;;5.06;77.95
74778;BME280;63298;53.164;8.610;2023-11-22T10:37:20;103246.00;;;5.12;78.25
74778;BME280;63298;53.164;8.610;2023-11-22T10:39:50;103228.84;;;5.10;78.00
74778;BME280;63298;53.164;8.610;2023-11-22T10:42:16;103227.72;;;5.03;77.99
74778;BME280;63298;53.164;8.610;2023-11-22T10:44:42;103236.63;;;5.05;78.41
74778;BME280;63298;53.164;8.610;2023-11-22T10:47:08;103216.47;;;5.06;77.80
74778;BME280;63298;53.164;8.610;2023-11-22T10:49:34;103208.41;;;5.14;77.83
74778;BME280;63298;53.164;8.610;2023-11-22T10:52:00;103208.41;;;5.14;78.12
74778;BME280;63298;53.164;8.610;2023-11-22T10:54:26;103200.19;;;5.14;77.84
74778;BME280;63298;53.164;8.610;2023-11-22T10:56:55;103213.19;;;5.21;77.92
74778;BME280;63298;53.164;8.610;2023-11-22T10:59:22;103200.38;;;5.22;77.85
74778;BME280;63298;53.164;8.610;2023-11-22T11:01:50;103162.78;;;5.14;76.86
74778;BME280;63298;53.164;8.610;2023-11-22T11:04:23;103178.19;;;5.25;77.81
74778;BME280;63298;53.164;8.610;2023-11-22T11:06:54;103170.69;;;5.27;77.46
74778;BME280;63298;53.164;8.610;2023-11-22T11:09:23;103131.81;;;5.14;76.97
74778;BME280;63298;53.164;8.610;2023-11-22T11:11:49;103153.56;;;5.25;77.37
74778;BME280;63298;53.164;8.610;2023-11-22T11:14:15;103139.88;;;5.25;76.55
74778;BME280;63298;53.164;8.610;2023-11-22T11:16:41;103124.91;;;5.19;77.34
74778;BME280;63298;53.164;8.610;2023-11-22T11:19:08;103115.56;;;5.22;77.46
74778;BME280;63298;53.164;8.610;2023-11-22T11:21:34;103089.19;;;5.21;76.59
74778;BME280;63298;53.164;8.610;2023-11-22T11:23:59;103075.22;;;5.24;76.33
74778;BME280;63298;53.164;8.610;2023-11-22T11:26:25;103074.94;;;5.27;77.05
74778;BME280;63298;53.164;8.610;2023-11-22T11:28:51;103057.06;;;5.23;76.14
74778;BME280;63298;53.164;8.610;2023-11-22T11:31:21;103052.59;;;5.32;75.94
74778;BME280;63298;53.164;8.610;2023-11-22T11:36:26;103047.22;;;5.40;76.18
74778;BME280;63298;53.164;8.610;2023-11-22T11:38:54;103033.81;;;5.46;75.59
74778;BME280;63298;53.164;8.610;2023-11-22T11:41:33;103022.88;;;5.46;75.90
74778;BME280;63298;53.164;8.610;2023-11-22T11:44:21;103033.66;;;5.57;75.16
74778;BME280;63298;53.164;8.610;2023-11-22T11:46:46;103013.31;;;5.60;75.57
74778;BME280;63298;53.164;8.610;2023-11-22T11:49:12;102996.41;;;5.64;75.85
74778;BME280;63298;53.164;8.610;2023-11-22T11:51:38;102995.09;;;5.69;74.71
74778;BME280;63298;53.164;8.610;2023-11-22T11:54:03;102979.28;;;5.62;75.01
74778;BME280;63298;53.164;8.610;2023-11-22T11:56:49;102961.59;;;5.57;74.07
74778;BME280;63298;53.164;8.610;2023-11-22T11:59:34;102974.38;;;5.66;74.66
74778;BME280;63298;53.164;8.610;2023-11-22T12:02:21;102985.47;;;5.64;73.83
74778;BME280;63298;53.164;8.610;2023-11-22T12:05:07;102983.03;;;5.61;74.13
74778;BME280;63298;53.164;8.610;2023-11-22T12:07:32;102982.88;;;5.63;74.29
74778;BME280;63298;53.164;8.610;2023-11-22T12:09:57;102971.78;;;5.64;74.39
74778;BME280;63298;53.164;8.610;2023-11-22T12:12:26;102974.38;;;5.66;73.95
74778;BME280;63298;53.164;8.610;2023-11-22T12:14:52;102973.59;;;5.74;73.68
74778;BME280;63298;53.164;8.610;2023-11-22T12:17:17;102966.09;;;5.76;74.60
74778;BME280;63298;53.164;8.610;2023-11-22T12:19:43;102977.13;;;5.84;73.25
74778;BME280;63298;53.164;8.610;2023-11-22T12:22:08;102992.69;;;5.93;74.11
74778;BME280;63298;53.164;8.610;2023-11-22T12:24:34;102985.22;;;5.85;74.34
74778;BME280;63298;53.164;8.610;2023-11-22T12:27:01;103006.22;;;5.94;73.76
74778;BME280;63298;53.164;8.610;2023-11-22T12:29:26;103020.19;;;6.01;73.67
74778;BME280;63298;53.164;8.610;2023-11-22T12:31:52;103021.75;;;6.03;73.30
74778;BME280;63298;53.164;8.610;2023-11-22T12:34:17;103014.72;;;6.01;73.44
74778;BME280;63298;53.164;8.610;2023-11-22T12:36:45;102993.41;;;5.95;73.26
74778;BME280;63298;53.164;8.610;2023-11-22T12:39:14;102997.41;;;6.00;72.90
74778;BME280;63298;53.164;8.610;2023-11-22T12:41:58;102981.31;;;5.88;73.17
74778;BME280;63298;53.164;8.610;2023-11-22T12:44:23;103010.56;;;5.97;72.69
74778;BME280;63298;53.164;8.610;2023-11-22T12:46:52;103012.56;;;5.95;72.90
74778;BME280;63298;53.164;8.610;2023-11-22T12:49:21;103009.38;;;5.99;72.98
74778;BME280;63298;53.164;8.610;2023-11-22T12:51:50;103020.19;;;6.01;72.51
74778;BME280;63298;53.164;8.610;2023-11-22T12:54:16;103024.47;;;6.03;72.09
74778;BME280;63298;53.164;8.610;2023-11-22T12:56:42;103006.38;;;5.93;72.63
74778;BME280;63298;53.164;8.610;2023-11-22T12:59:07;103018.13;;;6.03;72.42
74778;BME280;63298;53.164;8.610;2023-11-22T13:01:34;103012.19;;;6.07;72.21